createdAt,value
2023-02-24T00:04:56.013Z,29.75
2023-02-24T00:07:23.707Z,27.75
2023-02-24T00:09:52.879Z,25.95
2023-02-24T00:12:22.969Z,33.53
2023-02-24T00:14:52.639Z,24.35
2023-02-24T00:17:22.627Z,25.93
2023-02-24T00:19:52.573Z,33.88
2023-02-24T00:22:21.256Z,31.35
2023-02-24T00:24:49.008Z,30.38
2023-02-24T00:27:16.624Z,30.35
2023-02-24T00:29:47.493Z,31.38
2023-02-24T00:32:15.410Z,28.15
2023-02-24T00:34:43.725Z,29.38
2023-02-24T00:37:12.140Z,34.78
2023-02-24T00:39:41.833Z,32.17
2023-02-24T00:42:12.069Z,20.70
2023-02-24T00:44:40.861Z,39.00
2023-02-24T00:47:13.028Z,22.42
2023-02-24T00:49:43.021Z,28.30
2023-02-24T00:52:13.978Z,23.63
2023-02-24T00:54:42.455Z,17.85
2023-02-24T00:57:10.649Z,21.25
2023-02-24T00:59:38.346Z,25.77
2023-02-24T01:03:54.833Z,17.98
2023-02-24T01:06:25.201Z,24.23
2023-02-24T01:08:57.005Z,27.97
2023-02-24T01:11:53.102Z,19.98
2023-02-24T01:14:22.450Z,22.55
2023-02-24T01:16:53.104Z,18.98
2023-02-24T01:19:23.089Z,23.17
2023-02-24T01:21:55.316Z,16.05
2023-02-24T01:24:23.932Z,21.42
2023-02-24T01:26:52.787Z,26.63
2023-02-24T01:29:22.775Z,18.08
2023-02-24T01:31:52.442Z,17.92
2023-02-24T01:34:23.366Z,21.08
2023-02-24T01:36:54.052Z,25.63
2023-02-24T01:39:30.558Z,21.48
2023-02-24T01:42:01.249Z,19.00
2023-02-24T01:44:32.679Z,14.27
2023-02-24T01:47:04.121Z,23.65
2023-02-24T01:50:03.322Z,11.98
2023-02-24T01:52:32.365Z,17.15
2023-02-24T01:55:04.428Z,17.05
2023-02-24T01:57:34.674Z,17.30
2023-02-24T02:00:10.536Z,21.55
2023-02-24T02:02:42.677Z,12.57
2023-02-24T02:05:10.736Z,15.32
2023-02-24T02:07:40.592Z,15.50
2023-02-24T02:10:09.480Z,16.52
2023-02-24T02:12:44.706Z,20.90
2023-02-24T02:15:14.542Z,23.63
2023-02-24T02:17:44.032Z,23.77
2023-02-24T02:20:24.193Z,22.73
2023-02-24T02:23:10.554Z,13.13
2023-02-24T02:25:56.133Z,13.52
2023-02-24T02:28:37.224Z,19.17
2023-02-24T02:31:26.499Z,15.85
2023-02-24T02:34:11.793Z,11.48
2023-02-24T02:37:06.148Z,11.75
2023-02-24T02:39:37.270Z,10.98
2023-02-24T02:42:34.150Z,14.75
2023-02-24T02:45:07.827Z,23.00
2023-02-24T02:47:55.290Z,15.13
2023-02-24T02:50:28.114Z,8.25
2023-02-24T02:53:04.200Z,7.68
2023-02-24T02:55:44.074Z,17.17
2023-02-24T02:58:15.574Z,8.43
2023-02-24T03:01:03.844Z,16.77
2023-02-24T03:03:38.956Z,9.57
2023-02-24T03:06:12.793Z,6.40
2023-02-24T03:08:43.815Z,15.85
2023-02-24T03:11:14.363Z,13.18
2023-02-24T03:13:45.060Z,11.93
2023-02-24T03:16:14.916Z,8.68
2023-02-24T03:18:51.112Z,13.45
2023-02-24T03:21:24.210Z,4.40
2023-02-24T03:23:53.865Z,4.30
2023-02-24T03:26:44.081Z,5.75
2023-02-24T03:29:25.053Z,2.15
2023-02-24T03:32:00.314Z,3.58
2023-02-24T03:34:35.145Z,2.85
2023-02-24T03:37:02.783Z,5.68
2023-02-24T03:39:32.760Z,3.28
2023-02-24T03:42:14.083Z,4.53
2023-02-24T03:44:42.086Z,13.75
2023-02-24T03:47:09.887Z,6.70
2023-02-24T03:49:43.894Z,8.40
2023-02-24T03:52:22.299Z,7.72
2023-02-24T03:54:52.461Z,9.15
2023-02-24T03:57:55.058Z,6.90
2023-02-24T04:00:55.658Z,10.95
2023-02-24T04:03:40.072Z,6.95
2023-02-24T04:06:34.080Z,16.75
2023-02-24T04:09:21.370Z,15.48
2023-02-24T04:12:01.472Z,16.17
2023-02-24T04:14:31.598Z,12.70
2023-02-24T04:17:21.247Z,14.32
2023-02-24T04:19:54.755Z,12.30
2023-02-24T04:22:26.989Z,17.90
2023-02-24T04:24:58.168Z,12.43
2023-02-24T04:27:28.418Z,16.20
2023-02-24T04:30:05.550Z,20.63
2023-02-24T04:32:34.194Z,26.25
2023-02-24T04:35:02.890Z,22.40
2023-02-24T04:37:34.507Z,20.20
2023-02-24T04:40:13.070Z,34.45
2023-02-24T04:42:47.135Z,24.42
2023-02-24T04:45:17.008Z,22.40
2023-02-24T04:47:56.485Z,22.65
2023-02-24T04:50:25.864Z,21.80
2023-02-24T04:52:55.104Z,33.37
2023-02-24T04:55:24.501Z,15.20
2023-02-24T04:57:58.485Z,21.92
2023-02-24T05:00:34.526Z,18.30
2023-02-24T05:03:03.405Z,24.85
2023-02-24T05:05:33.496Z,26.98
2023-02-24T05:08:06.638Z,30.13
2023-02-24T05:10:41.735Z,25.08
2023-02-24T05:13:09.776Z,28.23
2023-02-24T05:15:40.678Z,31.88
2023-02-24T05:18:09.084Z,29.58
2023-02-24T05:20:56.318Z,22.95
2023-02-24T05:23:34.521Z,29.23
2023-02-24T05:26:03.760Z,25.80
2023-02-24T05:28:31.832Z,23.10
2023-02-24T05:31:10.758Z,24.42
2023-02-24T05:33:39.238Z,24.70
2023-02-24T05:36:14.996Z,24.88
2023-02-24T05:38:44.198Z,27.23
2023-02-24T05:41:17.049Z,21.85
2023-02-24T05:43:48.290Z,27.73
2023-02-24T05:46:16.838Z,31.25
2023-02-24T05:48:44.629Z,31.48
2023-02-24T05:51:13.438Z,36.25
2023-02-24T05:53:41.507Z,19.70
2023-02-24T05:56:12.131Z,26.48
2023-02-24T05:58:39.750Z,33.10
2023-02-24T06:01:16.330Z,23.48
2023-02-24T06:03:48.123Z,36.70
2023-02-24T06:06:16.806Z,27.40
2023-02-24T06:08:55.602Z,31.08
2023-02-24T06:11:23.917Z,29.77
2023-02-24T06:13:58.046Z,17.52
2023-02-24T06:16:29.794Z,28.27
2023-02-24T06:18:59.776Z,31.13
2023-02-24T06:21:31.204Z,31.83
2023-02-24T06:23:59.730Z,18.17
2023-02-24T06:26:30.065Z,21.95
2023-02-24T06:31:27.959Z,13.20
2023-02-24T06:33:56.371Z,19.55
2023-02-24T06:36:23.908Z,23.88
2023-02-24T06:38:52.813Z,18.90
2023-02-24T06:41:21.304Z,30.08
2023-02-24T06:43:55.248Z,21.55
2023-02-24T06:46:23.842Z,29.08
2023-02-24T06:48:52.619Z,28.00
2023-02-24T06:51:23.334Z,24.25
2023-02-24T06:53:53.965Z,22.67
2023-02-24T06:56:22.670Z,35.47
2023-02-24T06:58:55.593Z,27.27
2023-02-24T07:01:25.996Z,16.23
2023-02-24T07:06:36.480Z,21.20
2023-02-24T07:09:08.020Z,17.00
2023-02-24T07:11:36.949Z,18.52
2023-02-24T07:14:10.108Z,21.80
2023-02-24T07:16:41.777Z,24.73
2023-02-24T07:19:14.144Z,23.80
2023-02-24T07:21:52.866Z,19.83
2023-02-24T07:24:30.669Z,21.75
2023-02-24T07:26:59.887Z,25.98
2023-02-24T07:29:30.629Z,18.05
2023-02-24T07:32:03.894Z,22.55
2023-02-24T07:34:32.141Z,28.52
2023-02-24T07:37:02.711Z,24.55
2023-02-24T07:39:31.062Z,25.58
2023-02-24T07:41:59.467Z,34.95
2023-02-24T07:44:29.395Z,17.75
2023-02-24T07:46:59.537Z,28.63
2023-02-24T07:49:30.345Z,19.60
2023-02-24T07:51:58.222Z,24.80
2023-02-24T07:54:30.348Z,22.10
2023-02-24T07:56:59.634Z,13.80
2023-02-24T07:59:38.272Z,22.08
2023-02-24T08:02:07.873Z,13.02
2023-02-24T08:04:39.959Z,14.82
2023-02-24T08:07:14.691Z,20.00
2023-02-24T08:09:45.883Z,18.00
2023-02-24T08:12:18.407Z,17.83
2023-02-24T08:14:51.528Z,14.98
2023-02-24T08:17:23.521Z,20.15
2023-02-24T08:20:15.853Z,15.20
2023-02-24T08:22:46.912Z,19.30
2023-02-24T08:25:19.272Z,13.50
2023-02-24T08:28:12.842Z,15.20
2023-02-24T08:30:46.126Z,13.88
2023-02-24T08:33:18.840Z,26.05
2023-02-24T08:35:46.666Z,22.08
2023-02-24T08:38:18.358Z,24.38
2023-02-24T08:40:56.002Z,16.55
2023-02-24T08:43:30.731Z,14.40
2023-02-24T08:46:13.377Z,21.10
2023-02-24T08:48:42.765Z,27.50
2023-02-24T08:51:18.214Z,26.13
2023-02-24T08:53:46.928Z,24.35
2023-02-24T08:56:24.627Z,13.85
2023-02-24T08:59:07.225Z,19.77
2023-02-24T09:01:39.440Z,21.45
2023-02-24T09:04:07.106Z,17.25
2023-02-24T09:06:41.182Z,18.17
2023-02-24T09:09:17.925Z,17.65
2023-02-24T09:11:47.197Z,12.85
2023-02-24T09:14:25.818Z,21.05
2023-02-24T09:17:03.923Z,21.52
2023-02-24T09:19:40.518Z,22.13
2023-02-24T09:22:21.409Z,19.80
2023-02-24T09:24:51.468Z,24.50
2023-02-24T09:27:19.187Z,13.68
2023-02-24T09:29:50.564Z,24.60
2023-02-24T09:32:18.791Z,12.45
2023-02-24T09:34:46.455Z,18.92
2023-02-24T09:37:26.860Z,22.30
2023-02-24T09:39:58.284Z,19.75
2023-02-24T09:42:28.480Z,15.23
2023-02-24T09:44:57.466Z,25.38
2023-02-24T09:47:40.725Z,24.90
2023-02-24T09:50:14.275Z,22.38
2023-02-24T09:52:44.255Z,21.92
2023-02-24T09:55:26.962Z,19.15
2023-02-24T09:58:19.923Z,23.83
2023-02-24T10:00:58.350Z,17.20
2023-02-24T10:03:42.990Z,21.83
2023-02-24T10:06:14.650Z,19.48
2023-02-24T10:08:46.438Z,18.65
2023-02-24T10:11:15.565Z,31.40
2023-02-24T10:13:54.869Z,16.48
2023-02-24T10:16:24.978Z,20.50
2023-02-24T10:19:15.186Z,26.40
2023-02-24T10:22:03.258Z,26.90
2023-02-24T10:24:48.947Z,21.17
2023-02-24T10:27:30.441Z,21.67
2023-02-24T10:30:11.474Z,23.40
2023-02-24T10:32:48.193Z,22.63
2023-02-24T10:35:16.970Z,19.75
2023-02-24T10:37:45.187Z,27.13
2023-02-24T10:40:17.651Z,23.20
2023-02-24T10:42:48.099Z,19.25
2023-02-24T10:47:59.993Z,25.38
2023-02-24T10:50:36.004Z,14.38
2023-02-24T10:53:11.879Z,19.55
2023-02-24T10:55:44.054Z,13.23
2023-02-24T10:58:41.288Z,22.83
2023-02-24T11:04:01.640Z,21.52
2023-02-24T11:06:42.188Z,19.30
2023-02-24T11:09:22.956Z,34.95
2023-02-24T11:12:10.632Z,17.48
2023-02-24T11:14:59.870Z,23.02
2023-02-24T11:17:27.895Z,27.27
2023-02-24T11:19:59.016Z,19.83
2023-02-24T11:22:32.769Z,26.05
2023-02-24T11:25:10.271Z,24.27
2023-02-24T11:27:42.246Z,25.40
2023-02-24T11:30:15.167Z,21.58
2023-02-24T11:32:43.112Z,20.90
2023-02-24T11:35:35.710Z,30.10
2023-02-24T11:38:17.991Z,23.10
2023-02-24T11:40:52.902Z,31.10
2023-02-24T11:43:24.259Z,24.15
2023-02-24T11:45:54.497Z,23.13
2023-02-24T11:48:24.375Z,21.17
2023-02-24T11:51:03.649Z,28.90
2023-02-24T11:53:51.447Z,18.73
2023-02-24T11:56:23.701Z,25.48
2023-02-24T11:58:54.780Z,26.92
2023-02-24T12:01:24.579Z,27.13
2023-02-24T12:03:57.716Z,24.50
2023-02-24T12:06:30.853Z,29.60
2023-02-24T12:09:08.020Z,26.65
2023-02-24T12:11:35.849Z,21.35
2023-02-24T12:14:12.432Z,29.38
2023-02-24T12:16:46.048Z,22.83
2023-02-24T12:19:24.659Z,24.50
2023-02-24T12:21:54.698Z,26.20
2023-02-24T12:24:22.753Z,23.33
2023-02-24T12:26:53.179Z,20.92
2023-02-24T12:29:21.353Z,23.52
2023-02-24T12:32:22.731Z,28.83
2023-02-24T12:34:53.307Z,25.38
2023-02-24T12:39:55.127Z,23.90
2023-02-24T12:42:29.937Z,19.08
2023-02-24T12:45:13.147Z,24.33
2023-02-24T12:47:51.190Z,22.58
2023-02-24T12:50:32.478Z,27.17
2023-02-24T12:53:12.494Z,24.83
2023-02-24T12:55:46.498Z,24.80
2023-02-24T12:58:21.662Z,24.15
2023-02-24T13:01:06.774Z,28.85
2023-02-24T13:03:40.460Z,26.85
2023-02-24T13:06:17.459Z,20.90
2023-02-24T13:08:54.987Z,24.05
2023-02-24T13:11:38.743Z,30.52
2023-02-24T13:14:09.906Z,18.77
2023-02-24T13:16:37.730Z,20.00
2023-02-24T13:19:19.176Z,21.95
2023-02-24T13:21:56.804Z,28.23
2023-02-24T13:24:26.624Z,17.52
2023-02-24T13:27:04.775Z,25.30
2023-02-24T13:29:43.646Z,19.45
2023-02-24T13:32:31.809Z,22.63
2023-02-24T13:35:20.056Z,19.20
2023-02-24T13:37:48.974Z,19.50
2023-02-24T13:40:19.462Z,19.60
2023-02-24T13:42:59.586Z,25.48
2023-02-24T13:45:31.669Z,18.77
2023-02-24T13:48:14.492Z,29.10
2023-02-24T13:50:42.569Z,24.60
2023-02-24T13:53:29.118Z,25.15
2023-02-24T13:56:15.380Z,27.85
2023-02-24T13:58:43.600Z,23.48
2023-02-24T14:01:16.614Z,23.77
2023-02-24T14:03:47.951Z,33.55
2023-02-24T14:06:18.310Z,29.88
2023-02-24T14:08:54.853Z,31.63
2023-02-24T14:11:28.640Z,28.10
2023-02-24T14:13:57.283Z,23.08
2023-02-24T14:16:30.077Z,24.63
2023-02-24T14:18:59.992Z,21.35
2023-02-24T14:21:29.229Z,22.45
2023-02-24T14:24:12.181Z,21.85
2023-02-24T14:26:47.771Z,23.13
2023-02-24T14:29:18.712Z,25.65
2023-02-24T14:31:51.465Z,25.67
2023-02-24T14:34:22.692Z,30.27
2023-02-24T14:36:52.939Z,26.40
2023-02-24T14:39:25.259Z,27.50
2023-02-24T14:42:05.121Z,19.00
2023-02-24T14:44:33.161Z,23.20
2023-02-24T14:47:03.795Z,23.50
2023-02-24T14:49:35.223Z,17.92
2023-02-24T14:52:02.815Z,10.05
2023-02-24T14:54:42.098Z,9.15
2023-02-24T14:57:13.225Z,15.57
2023-02-24T14:59:42.204Z,19.85
2023-02-24T15:02:25.804Z,12.63
2023-02-24T15:04:55.916Z,20.25
2023-02-24T15:07:25.527Z,20.63
2023-02-24T15:09:56.505Z,18.53
2023-02-24T15:12:24.250Z,14.88
2023-02-24T15:14:57.308Z,15.20
2023-02-24T15:17:25.961Z,11.13
2023-02-24T15:19:56.399Z,13.60
2023-02-24T15:24:53.287Z,12.38
2023-02-24T15:27:23.041Z,19.45
2023-02-24T15:30:06.601Z,17.02
2023-02-24T15:32:36.059Z,14.15
2023-02-24T15:35:04.782Z,14.30
2023-02-24T15:37:39.195Z,21.23
2023-02-24T15:40:10.420Z,13.23
2023-02-24T15:42:38.054Z,14.15
2023-02-24T15:45:24.527Z,17.92
2023-02-24T15:47:56.469Z,19.40
2023-02-24T15:50:24.205Z,21.13
2023-02-24T15:52:53.295Z,20.95
2023-02-24T15:55:23.164Z,20.88
2023-02-24T15:57:57.476Z,26.58
2023-02-24T16:00:25.351Z,26.73
2023-02-24T16:02:53.907Z,18.63
2023-02-24T16:05:22.616Z,23.70
2023-02-24T16:07:51.434Z,21.25
2023-02-24T16:10:23.471Z,26.48
2023-02-24T16:13:04.644Z,14.32
2023-02-24T16:15:35.662Z,19.42
2023-02-24T16:18:03.456Z,14.02
2023-02-24T16:20:32.012Z,18.45
2023-02-24T16:23:00.412Z,17.35
2023-02-24T16:25:28.278Z,18.60
2023-02-24T16:27:59.008Z,14.63
2023-02-24T16:30:30.746Z,18.05
2023-02-24T16:32:59.593Z,13.40
2023-02-24T16:35:27.883Z,15.15
2023-02-24T16:37:56.127Z,15.75
2023-02-24T16:40:32.178Z,11.43
2023-02-24T16:42:59.986Z,9.88
2023-02-24T16:45:29.180Z,11.40
2023-02-24T16:48:00.034Z,17.13
2023-02-24T16:50:34.890Z,16.15
2023-02-24T16:53:03.336Z,9.15
2023-02-24T16:55:31.021Z,13.93
2023-02-24T16:57:59.423Z,12.48
2023-02-24T17:01:11.710Z,14.18
2023-02-24T17:03:49.135Z,13.32
2023-02-24T17:06:16.838Z,8.65
2023-02-24T17:08:46.273Z,11.93
2023-02-24T17:11:18.682Z,14.30
2023-02-24T17:13:46.435Z,10.98
2023-02-24T17:16:14.108Z,8.93
2023-02-24T17:18:42.597Z,17.83
2023-02-24T17:21:13.169Z,16.23
2023-02-24T17:23:42.620Z,5.40
2023-02-24T17:26:12.772Z,10.18
2023-02-24T17:28:40.365Z,12.35
2023-02-24T17:31:08.228Z,8.80
2023-02-24T17:33:36.198Z,10.80
2023-02-24T17:36:06.823Z,11.60
2023-02-24T17:38:34.549Z,8.93
2023-02-24T17:41:02.553Z,11.57
2023-02-24T17:43:30.140Z,11.55
2023-02-24T17:45:57.714Z,14.02
2023-02-24T17:48:25.924Z,14.30
2023-02-24T17:50:53.623Z,16.25
2023-02-24T17:53:24.744Z,15.20
2023-02-24T17:56:02.349Z,24.90
2023-02-24T17:58:30.940Z,12.20
2023-02-24T18:00:58.640Z,18.50
2023-02-24T18:03:26.767Z,14.05
2023-02-24T18:06:01.528Z,13.90
2023-02-24T18:08:30.733Z,25.85
2023-02-24T18:10:59.278Z,15.20
2023-02-24T18:13:27.254Z,17.40
2023-02-24T18:15:55.072Z,12.88
2023-02-24T18:18:27.103Z,16.20
2023-02-24T18:20:58.822Z,16.08
2023-02-24T18:23:26.506Z,10.80
2023-02-24T18:25:54.298Z,16.50
2023-02-24T18:28:22.545Z,26.08
2023-02-24T18:30:50.532Z,20.65
2023-02-24T18:33:18.955Z,16.65
2023-02-24T18:35:47.185Z,15.23
2023-02-24T18:38:14.712Z,21.25
2023-02-24T18:40:42.289Z,21.38
2023-02-24T18:43:13.991Z,21.42
2023-02-24T18:45:41.634Z,21.48
2023-02-24T18:48:10.386Z,20.98
2023-02-24T18:50:38.102Z,22.45
2023-02-24T18:53:05.929Z,24.05
2023-02-24T18:55:36.078Z,23.48
2023-02-24T19:00:31.340Z,20.83
2023-02-24T19:02:58.900Z,16.77
2023-02-24T19:05:37.735Z,16.63
2023-02-24T19:08:05.804Z,16.00
2023-02-24T19:10:34.497Z,15.73
2023-02-24T19:13:02.090Z,14.88
2023-02-24T19:15:29.632Z,17.27
2023-02-24T19:17:58.379Z,16.98
2023-02-24T19:20:25.917Z,14.35
2023-02-24T19:22:53.735Z,21.55
2023-02-24T19:25:22.323Z,21.33
2023-02-24T19:27:49.866Z,19.73
2023-02-24T19:30:17.621Z,17.70
2023-02-24T19:32:45.453Z,16.95
2023-02-24T19:35:16.530Z,15.80
2023-02-24T19:37:44.428Z,29.20
2023-02-24T19:40:12.481Z,25.48
2023-02-24T19:42:40.451Z,19.67
2023-02-24T19:45:09.209Z,23.50
2023-02-24T19:47:36.972Z,22.42
2023-02-24T19:50:04.841Z,29.40
2023-02-24T19:52:32.700Z,32.53
2023-02-24T19:55:04.295Z,24.40
2023-02-24T19:57:34.486Z,24.90
2023-02-24T20:00:01.959Z,16.98
2023-02-24T20:02:39.758Z,19.23
2023-02-24T20:05:08.804Z,21.65
2023-02-24T20:07:36.560Z,20.58
2023-02-24T20:10:04.724Z,35.63
2023-02-24T20:12:32.367Z,27.98
2023-02-24T20:15:00.428Z,19.33
2023-02-24T20:17:28.367Z,25.60
2023-02-24T20:19:55.965Z,26.08
2023-02-24T20:22:23.724Z,23.08
2023-02-24T20:24:52.168Z,26.58
2023-02-24T20:27:22.241Z,24.27
2023-02-24T20:29:51.273Z,19.95
2023-02-24T20:32:23.574Z,26.90
2023-02-24T20:37:21.311Z,30.08
2023-02-24T20:39:48.984Z,24.17
2023-02-24T20:42:16.852Z,24.20
2023-02-24T20:44:44.462Z,26.23
2023-02-24T20:47:12.632Z,23.88
2023-02-24T20:49:40.240Z,36.75
2023-02-24T20:52:08.425Z,26.67
2023-02-24T20:54:37.446Z,29.42
2023-02-24T20:57:05.550Z,30.77
2023-02-24T20:59:33.107Z,27.00
2023-02-24T21:02:00.956Z,29.42
2023-02-24T21:04:28.923Z,38.08
2023-02-24T21:06:57.398Z,30.33
2023-02-24T21:09:24.962Z,29.23
2023-02-24T21:11:55.613Z,36.38
2023-02-24T21:14:24.485Z,40.42
2023-02-24T21:16:52.762Z,32.25
2023-02-24T21:19:21.369Z,33.42
2023-02-24T21:21:48.972Z,33.08
2023-02-24T21:24:16.622Z,26.77
2023-02-24T21:26:44.142Z,32.75
2023-02-24T21:29:11.644Z,24.10
2023-02-24T21:31:39.293Z,26.55
2023-02-24T21:34:07.000Z,34.40
2023-02-24T21:36:34.652Z,36.10
2023-02-24T21:39:02.288Z,41.85
2023-02-24T21:41:31.324Z,27.83
2023-02-24T21:44:00.641Z,19.87
2023-02-24T21:46:28.858Z,26.73
2023-02-24T21:48:58.365Z,25.17
2023-02-24T21:51:26.418Z,42.60
2023-02-24T21:53:57.242Z,27.20
2023-02-24T21:56:25.998Z,37.30
2023-02-24T21:58:55.091Z,25.48
2023-02-24T22:01:29.211Z,38.10
2023-02-24T22:03:58.014Z,24.80
2023-02-24T22:06:31.426Z,21.33
2023-02-24T22:09:02.957Z,28.35
2023-02-24T22:11:33.098Z,27.20
2023-02-24T22:14:00.611Z,25.27
2023-02-24T22:16:28.729Z,29.90
2023-02-24T22:18:56.989Z,29.85
2023-02-24T22:21:25.529Z,18.02
2023-02-24T22:23:55.868Z,35.13
2023-02-24T22:26:25.520Z,21.20
2023-02-24T22:28:55.326Z,23.85
2023-02-24T22:31:25.655Z,20.13
2023-02-24T22:36:23.048Z,23.80
2023-02-24T22:38:51.355Z,26.02
2023-02-24T22:41:21.657Z,18.40
2023-02-24T22:43:49.586Z,15.15
2023-02-24T22:46:26.301Z,16.35
2023-02-24T22:48:54.277Z,16.25
2023-02-24T22:51:22.583Z,20.30
2023-02-24T22:53:51.442Z,15.13
2023-02-24T22:56:24.006Z,16.35
2023-02-24T22:58:53.550Z,20.52
2023-02-24T23:01:42.788Z,14.13
2023-02-24T23:04:14.404Z,12.68
2023-02-24T23:06:49.999Z,15.63
2023-02-24T23:09:22.610Z,13.25
2023-02-24T23:11:54.166Z,12.55
2023-02-24T23:14:24.947Z,17.63
2023-02-24T23:16:55.791Z,15.05
2023-02-24T23:19:24.008Z,12.50
2023-02-24T23:21:53.349Z,15.98
2023-02-24T23:24:28.902Z,15.07
2023-02-24T23:26:58.109Z,12.45
2023-02-24T23:29:26.693Z,16.40
2023-02-24T23:31:54.581Z,23.80
2023-02-24T23:34:24.006Z,18.00
2023-02-24T23:36:55.031Z,20.55
2023-02-24T23:39:24.092Z,17.17
2023-02-24T23:41:56.941Z,20.83
2023-02-24T23:44:24.912Z,16.08
2023-02-24T23:46:58.368Z,16.85
2023-02-24T23:49:33.608Z,27.55
2023-02-24T23:52:13.186Z,13.50
2023-02-24T23:57:08.747Z,15.32
2023-02-24T23:59:37.655Z,19.25
